createdAt,value
2023-05-15T00:00:46.620Z,5.63
2023-05-15T00:03:14.121Z,5.30
2023-05-15T00:05:41.383Z,5.38
2023-05-15T00:08:08.585Z,5.75
2023-05-15T00:10:35.872Z,5.50
2023-05-15T00:13:03.037Z,5.80
2023-05-15T00:15:30.256Z,5.95
2023-05-15T00:17:57.468Z,5.35
2023-05-15T00:20:24.720Z,6.30
2023-05-15T00:22:51.908Z,5.90
2023-05-15T00:25:19.638Z,6.20
2023-05-15T00:27:47.050Z,6.10
2023-05-15T00:30:14.907Z,5.65
2023-05-15T00:32:42.093Z,6.10
2023-05-15T00:35:09.635Z,6.88
2023-05-15T00:37:36.860Z,5.95
2023-05-15T00:40:04.764Z,6.85
2023-05-15T00:42:32.678Z,6.00
2023-05-15T00:45:01.938Z,6.15
2023-05-15T00:47:29.744Z,6.65
2023-05-15T00:49:57.630Z,5.78
2023-05-15T00:52:24.913Z,5.93
2023-05-15T00:54:52.112Z,5.78
2023-05-15T00:57:19.640Z,6.03
2023-05-15T00:59:47.035Z,6.05
2023-05-15T01:02:16.086Z,6.00
2023-05-15T01:04:43.300Z,5.88
2023-05-15T01:07:10.624Z,5.88
2023-05-15T01:09:37.886Z,6.25
2023-05-15T01:12:05.773Z,6.28
2023-05-15T01:14:32.922Z,5.50
2023-05-15T01:17:00.137Z,7.13
2023-05-15T01:19:27.381Z,6.40
2023-05-15T01:22:03.976Z,6.40
2023-05-15T01:24:50.158Z,6.20
2023-05-15T01:27:35.896Z,6.78
2023-05-15T01:30:09.432Z,6.57
2023-05-15T01:32:39.624Z,6.18
2023-05-15T01:35:25.948Z,5.93
2023-05-15T01:37:56.686Z,6.07
2023-05-15T01:40:25.715Z,6.78
2023-05-15T01:42:56.121Z,6.63
2023-05-15T01:45:25.626Z,6.03
2023-05-15T01:47:55.037Z,6.93
2023-05-15T01:50:22.523Z,7.53
2023-05-15T01:52:54.730Z,6.68
2023-05-15T01:55:23.348Z,7.18
2023-05-15T01:57:51.680Z,7.47
2023-05-15T02:00:19.160Z,7.10
2023-05-15T02:02:47.177Z,7.13
2023-05-15T02:05:15.426Z,6.75
2023-05-15T02:07:43.305Z,6.78
2023-05-15T02:10:11.688Z,5.95
2023-05-15T02:12:40.464Z,5.97
2023-05-15T02:15:09.356Z,6.15
2023-05-15T02:17:36.749Z,6.43
2023-05-15T02:20:06.030Z,5.80
2023-05-15T02:22:33.212Z,5.97
2023-05-15T02:25:00.380Z,5.93
2023-05-15T02:27:50.649Z,5.65
2023-05-15T02:30:17.807Z,5.60
2023-05-15T02:33:00.227Z,5.47
2023-05-15T02:35:30.555Z,5.90
2023-05-15T02:37:59.463Z,6.03
2023-05-15T02:40:26.957Z,6.03
2023-05-15T02:42:54.475Z,6.45
2023-05-15T02:45:23.318Z,6.40
2023-05-15T02:47:51.682Z,5.97
2023-05-15T02:50:19.183Z,5.30
2023-05-15T02:52:46.481Z,5.97
2023-05-15T02:55:13.748Z,6.13
2023-05-15T02:57:40.974Z,6.15
2023-05-15T03:00:11.774Z,6.45
2023-05-15T03:02:39.100Z,6.65
2023-05-15T03:05:07.081Z,6.45
2023-05-15T03:07:34.198Z,6.53
2023-05-15T03:10:01.417Z,6.88
2023-05-15T03:12:28.580Z,6.93
2023-05-15T03:14:55.788Z,7.28
2023-05-15T03:17:22.949Z,7.30
2023-05-15T03:19:50.131Z,7.07
2023-05-15T03:22:17.290Z,6.88
2023-05-15T03:24:44.579Z,7.53
2023-05-15T03:27:11.721Z,7.10
2023-05-15T03:29:39.197Z,6.60
2023-05-15T03:32:06.409Z,6.93
2023-05-15T03:34:33.565Z,7.35
2023-05-15T03:37:00.733Z,7.45
2023-05-15T03:39:27.865Z,7.32
2023-05-15T03:41:55.017Z,8.18
2023-05-15T03:44:22.224Z,7.90
2023-05-15T03:46:49.460Z,7.35
2023-05-15T03:49:16.703Z,7.57
2023-05-15T03:51:43.922Z,7.10
2023-05-15T03:54:11.105Z,7.43
2023-05-15T03:56:38.249Z,7.07
2023-05-15T03:59:05.482Z,6.70
2023-05-15T04:01:35.737Z,6.60
2023-05-15T04:04:06.502Z,7.13
2023-05-15T04:06:33.701Z,6.78
2023-05-15T04:09:00.901Z,6.65
2023-05-15T04:11:28.607Z,6.88
2023-05-15T04:13:55.791Z,6.35
2023-05-15T04:16:23.000Z,7.32
2023-05-15T04:18:50.286Z,7.45
2023-05-15T04:21:17.420Z,7.45
2023-05-15T04:23:44.617Z,7.43
2023-05-15T04:26:12.166Z,7.28
2023-05-15T04:28:41.490Z,6.95
2023-05-15T04:31:13.940Z,7.90
2023-05-15T04:33:41.170Z,7.30
2023-05-15T04:36:08.734Z,6.82
2023-05-15T04:38:36.158Z,6.43
2023-05-15T04:41:03.626Z,6.60
2023-05-15T04:43:31.532Z,6.53
2023-05-15T04:45:58.785Z,6.10
2023-05-15T04:48:25.893Z,6.80
2023-05-15T04:50:53.076Z,6.50
2023-05-15T04:53:20.274Z,6.85
2023-05-15T04:55:47.567Z,6.70
2023-05-15T04:58:14.811Z,7.28
2023-05-15T05:00:42.056Z,7.35
2023-05-15T05:03:09.388Z,6.78
2023-05-15T05:05:36.641Z,7.10
2023-05-15T05:08:03.785Z,7.63
2023-05-15T05:10:31.188Z,6.78
2023-05-15T05:12:58.293Z,6.85
2023-05-15T05:15:25.986Z,6.82
2023-05-15T05:17:53.973Z,6.65
2023-05-15T05:20:21.136Z,5.78
2023-05-15T05:22:48.295Z,6.10
2023-05-15T05:25:15.499Z,5.97
2023-05-15T05:27:42.819Z,6.72
2023-05-15T05:30:10.393Z,6.75
2023-05-15T05:32:37.671Z,6.47
2023-05-15T05:35:05.039Z,6.18
2023-05-15T05:37:32.236Z,6.57
2023-05-15T05:39:59.333Z,6.10
2023-05-15T05:42:26.934Z,5.95
2023-05-15T05:44:54.102Z,5.32
2023-05-15T05:47:21.284Z,5.57
2023-05-15T05:49:48.557Z,5.07
2023-05-15T05:52:18.729Z,5.10
2023-05-15T05:54:48.124Z,5.03
2023-05-15T05:57:15.510Z,5.32
2023-05-15T05:59:42.665Z,5.32
2023-05-15T06:02:10.202Z,4.55
2023-05-15T06:04:37.468Z,5.20
2023-05-15T06:07:04.780Z,5.18
2023-05-15T06:09:32.054Z,5.43
2023-05-15T06:12:00.719Z,5.55
2023-05-15T06:14:27.915Z,5.28
2023-05-15T06:16:55.203Z,4.72
2023-05-15T06:19:22.416Z,4.90
2023-05-15T06:21:49.641Z,5.47
2023-05-15T06:24:16.829Z,6.10
2023-05-15T06:26:44.049Z,6.10
2023-05-15T06:29:11.340Z,5.10
2023-05-15T06:31:38.477Z,5.30
2023-05-15T06:34:06.424Z,5.95
2023-05-15T06:36:33.873Z,6.22
2023-05-15T06:39:01.014Z,5.40
2023-05-15T06:41:28.195Z,6.50
2023-05-15T06:43:55.403Z,5.97
2023-05-15T06:46:22.652Z,6.25
2023-05-15T06:48:49.847Z,6.35
2023-05-15T06:51:16.972Z,6.43
2023-05-15T06:53:44.131Z,5.68
2023-05-15T06:56:11.311Z,6.30
2023-05-15T06:58:38.550Z,5.53
2023-05-15T07:01:07.094Z,5.50
2023-05-15T07:03:34.458Z,5.28
2023-05-15T07:06:01.612Z,5.68
2023-05-15T07:08:28.805Z,4.63
2023-05-15T07:10:55.957Z,4.97
2023-05-15T07:13:23.095Z,4.80
2023-05-15T07:15:50.283Z,4.55
2023-05-15T07:18:17.477Z,4.50
2023-05-15T07:20:45.066Z,4.57
2023-05-15T07:23:12.365Z,4.13
2023-05-15T07:25:39.923Z,4.40
2023-05-15T07:28:07.125Z,3.97
2023-05-15T07:30:34.336Z,4.47
2023-05-15T07:33:01.729Z,4.22
2023-05-15T07:35:28.892Z,4.60
2023-05-15T07:37:56.116Z,5.22
2023-05-15T07:40:23.320Z,4.65
2023-05-15T07:42:50.641Z,4.88
2023-05-15T07:45:18.019Z,4.75
2023-05-15T07:47:49.049Z,4.35
2023-05-15T07:50:16.702Z,5.10
2023-05-15T07:52:44.453Z,4.65
2023-05-15T07:55:12.515Z,4.10
2023-05-15T07:57:42.609Z,4.20
2023-05-15T08:00:12.886Z,4.60
2023-05-15T08:02:40.949Z,4.38
2023-05-15T08:05:08.371Z,4.10
2023-05-15T08:07:36.012Z,4.50
2023-05-15T08:10:06.194Z,4.32
2023-05-15T08:12:33.746Z,5.22
2023-05-15T08:15:00.955Z,4.93
2023-05-15T08:17:28.151Z,4.90
2023-05-15T08:19:55.389Z,5.53
2023-05-15T08:22:22.567Z,4.55
2023-05-15T08:24:49.792Z,4.68
2023-05-15T08:27:16.965Z,4.57
2023-05-15T08:29:45.119Z,4.50
2023-05-15T08:32:12.364Z,4.80
2023-05-15T08:34:39.545Z,5.07
2023-05-15T08:37:07.204Z,5.05
2023-05-15T08:39:34.373Z,4.18
2023-05-15T08:42:06.410Z,4.60
2023-05-15T08:44:34.043Z,4.40
2023-05-15T08:47:01.660Z,4.82
2023-05-15T08:49:31.934Z,5.05
2023-05-15T08:51:59.401Z,5.40
2023-05-15T08:54:26.678Z,4.30
2023-05-15T08:56:54.088Z,5.00
2023-05-15T08:59:21.497Z,5.50
2023-05-15T09:01:49.812Z,4.88
2023-05-15T09:04:17.156Z,4.82
2023-05-15T09:06:45.019Z,5.45
2023-05-15T09:09:13.599Z,4.90
2023-05-15T09:11:44.946Z,4.97
2023-05-15T09:14:12.235Z,4.88
2023-05-15T09:16:39.682Z,4.47
2023-05-15T09:19:07.237Z,4.90
2023-05-15T09:21:34.586Z,4.57
2023-05-15T09:24:19.990Z,4.45
2023-05-15T09:26:47.748Z,4.03
2023-05-15T09:29:18.820Z,4.70
2023-05-15T09:31:49.413Z,4.53
2023-05-15T09:34:16.829Z,4.22
2023-05-15T09:36:47.561Z,4.55
2023-05-15T09:39:14.729Z,4.28
2023-05-15T09:41:44.256Z,4.95
2023-05-15T09:44:21.999Z,4.00
2023-05-15T09:46:51.153Z,4.75
2023-05-15T09:49:19.292Z,4.32
2023-05-15T09:51:46.771Z,3.88
2023-05-15T09:54:18.141Z,4.32
2023-05-15T09:56:46.876Z,4.22
2023-05-15T09:59:17.341Z,3.75
2023-05-15T10:01:45.631Z,4.00
2023-05-15T10:04:13.555Z,4.20
2023-05-15T10:06:43.046Z,4.13
2023-05-15T10:09:11.310Z,3.70
2023-05-15T10:11:39.243Z,3.75
2023-05-15T10:14:07.499Z,3.90
2023-05-15T10:16:35.895Z,3.47
2023-05-15T10:19:07.843Z,3.42
2023-05-15T10:21:36.406Z,3.73
2023-05-15T10:24:04.679Z,3.95
2023-05-15T10:26:38.229Z,4.05
2023-05-15T10:29:15.170Z,3.55
2023-05-15T10:31:42.856Z,4.00
2023-05-15T10:34:11.233Z,3.60
2023-05-15T10:36:39.106Z,3.90
2023-05-15T10:39:07.445Z,3.15
2023-05-15T10:41:37.020Z,3.25
2023-05-15T10:44:04.335Z,3.38
2023-05-15T10:46:33.266Z,3.47
2023-05-15T10:49:01.751Z,3.58
2023-05-15T10:51:29.664Z,3.60
2023-05-15T10:53:57.634Z,3.15
2023-05-15T10:56:30.702Z,3.45
2023-05-15T10:58:58.180Z,4.10
2023-05-15T11:01:27.041Z,3.70
2023-05-15T11:04:06.280Z,3.40
2023-05-15T11:06:33.923Z,4.35
2023-05-15T11:09:19.907Z,4.05
2023-05-15T11:11:54.704Z,4.00
2023-05-15T11:14:22.435Z,4.90
2023-05-15T11:16:57.479Z,5.63
2023-05-15T11:19:24.744Z,3.70
2023-05-15T11:22:10.278Z,3.88
2023-05-15T11:24:56.460Z,4.00
2023-05-15T11:27:31.617Z,3.42
2023-05-15T11:30:22.017Z,3.10
2023-05-15T11:32:49.842Z,4.07
2023-05-15T11:35:20.149Z,3.30
2023-05-15T11:37:48.458Z,3.70
2023-05-15T11:40:19.662Z,2.95
2023-05-15T11:42:59.923Z,2.05
2023-05-15T11:45:28.478Z,1.63
2023-05-15T11:47:55.665Z,1.58
2023-05-15T11:50:23.241Z,1.60
2023-05-15T11:52:50.654Z,1.60
2023-05-15T11:55:19.839Z,1.60
2023-05-15T11:57:50.785Z,1.35
2023-05-15T12:00:18.054Z,1.70
2023-05-15T12:02:45.328Z,1.70
2023-05-15T12:05:12.808Z,1.90
2023-05-15T12:07:40.255Z,1.92
2023-05-15T12:10:07.643Z,1.85
2023-05-15T12:12:36.841Z,1.90
2023-05-15T12:15:05.717Z,1.60
2023-05-15T12:17:33.225Z,1.52
2023-05-15T12:20:00.933Z,1.40
2023-05-15T12:22:28.192Z,1.75
2023-05-15T12:24:59.714Z,1.50
2023-05-15T12:27:27.268Z,1.60
2023-05-15T12:29:54.664Z,1.42
2023-05-15T12:32:22.083Z,1.50
2023-05-15T12:34:49.566Z,1.35
2023-05-15T12:37:20.904Z,1.50
2023-05-15T12:39:52.172Z,1.60
2023-05-15T12:42:19.345Z,2.30
2023-05-15T12:44:46.507Z,1.60
2023-05-15T12:47:22.268Z,7.13
2023-05-15T12:49:49.392Z,2.35
2023-05-15T12:52:17.159Z,2.00
2023-05-15T12:54:44.926Z,1.80
2023-05-15T12:57:12.681Z,1.90
2023-05-15T12:59:40.736Z,1.85
2023-05-15T13:02:11.659Z,1.90
2023-05-15T13:04:38.920Z,2.03
2023-05-15T13:07:06.203Z,1.60
2023-05-15T13:09:35.344Z,1.60
2023-05-15T13:12:04.022Z,1.73
2023-05-15T13:14:35.217Z,1.60
2023-05-15T13:17:03.344Z,1.75
2023-05-15T13:19:30.906Z,1.65
2023-05-15T13:21:58.365Z,1.48
2023-05-15T13:24:25.576Z,1.40
2023-05-15T13:26:52.980Z,1.52
2023-05-15T13:29:20.294Z,1.83
2023-05-15T13:31:47.544Z,1.30
2023-05-15T13:34:14.797Z,1.40
2023-05-15T13:36:42.003Z,1.60
2023-05-15T13:39:09.284Z,1.75
2023-05-15T13:41:37.753Z,1.58
2023-05-15T13:44:04.960Z,1.42
2023-05-15T13:46:32.215Z,1.45
2023-05-15T13:48:59.374Z,1.60
2023-05-15T13:51:26.498Z,3.55
2023-05-15T13:53:53.741Z,1.80
2023-05-15T13:56:20.964Z,1.83
2023-05-15T13:58:48.154Z,1.80
2023-05-15T14:01:15.352Z,1.95
2023-05-15T14:03:42.652Z,2.15
2023-05-15T14:06:18.676Z,2.00
2023-05-15T14:08:46.347Z,1.92
2023-05-15T14:11:13.473Z,2.13
2023-05-15T14:13:42.302Z,2.40
2023-05-15T14:16:09.482Z,2.30
2023-05-15T14:18:36.706Z,2.35
2023-05-15T14:21:04.128Z,2.15
2023-05-15T14:23:31.362Z,2.60
2023-05-15T14:25:58.591Z,2.10
2023-05-15T14:28:25.915Z,2.35
2023-05-15T14:30:53.073Z,2.35
2023-05-15T14:33:20.674Z,2.33
2023-05-15T14:35:48.012Z,1.90
2023-05-15T14:38:15.359Z,2.65
2023-05-15T14:40:43.202Z,2.30
2023-05-15T14:43:10.390Z,2.40
2023-05-15T14:45:37.613Z,2.22
2023-05-15T14:48:04.998Z,2.50
2023-05-15T14:50:32.235Z,1.70
2023-05-15T14:52:59.417Z,2.33
2023-05-15T14:55:26.681Z,2.33
2023-05-15T14:57:53.858Z,2.30
2023-05-15T15:00:21.087Z,2.50
2023-05-15T15:02:48.341Z,2.45
2023-05-15T15:05:17.060Z,2.30
2023-05-15T15:08:01.320Z,2.63
2023-05-15T15:10:28.867Z,2.85
2023-05-15T15:12:56.079Z,2.58
2023-05-15T15:15:23.636Z,2.80
2023-05-15T15:17:51.794Z,2.80
2023-05-15T15:20:20.055Z,2.75
2023-05-15T15:22:47.622Z,2.88
2023-05-15T15:25:14.994Z,2.80
2023-05-15T15:27:42.322Z,2.60
2023-05-15T15:30:10.569Z,2.75
2023-05-15T15:32:38.225Z,2.90
2023-05-15T15:35:05.865Z,2.60
2023-05-15T15:37:33.809Z,2.60
2023-05-15T15:40:07.646Z,2.55
2023-05-15T15:42:35.750Z,2.50
2023-05-15T15:45:03.294Z,2.70
2023-05-15T15:47:31.903Z,2.80
2023-05-15T15:49:59.876Z,2.70
2023-05-15T15:52:27.426Z,2.70
2023-05-15T15:54:54.703Z,2.30
2023-05-15T15:57:22.197Z,2.40
2023-05-15T15:59:49.642Z,2.80
2023-05-15T16:02:17.526Z,5.00
2023-05-15T16:04:44.746Z,2.97
2023-05-15T16:07:11.882Z,4.00
2023-05-15T16:09:39.105Z,2.75
2023-05-15T16:12:06.523Z,2.10
2023-05-15T16:14:33.734Z,3.40
2023-05-15T16:17:03.994Z,2.92
2023-05-15T16:19:31.353Z,2.90
2023-05-15T16:21:58.504Z,2.90
2023-05-15T16:24:26.406Z,3.10
2023-05-15T16:26:53.630Z,3.00
2023-05-15T16:29:20.886Z,3.33
2023-05-15T16:31:48.152Z,3.33
2023-05-15T16:34:15.323Z,3.97
2023-05-15T16:36:42.458Z,3.38
2023-05-15T16:39:09.627Z,4.32
2023-05-15T16:41:36.823Z,4.10
2023-05-15T16:44:06.117Z,4.15
2023-05-15T16:46:33.282Z,4.57
2023-05-15T16:49:00.485Z,4.43
2023-05-15T16:51:27.646Z,3.90
2023-05-15T16:53:56.361Z,4.57
2023-05-15T16:56:24.337Z,4.53
2023-05-15T16:58:52.915Z,4.38
2023-05-15T17:01:20.110Z,4.28
2023-05-15T17:03:47.470Z,4.07
2023-05-15T17:06:14.681Z,4.63
2023-05-15T17:08:43.492Z,4.35
2023-05-15T17:11:10.881Z,4.03
2023-05-15T17:13:38.276Z,4.55
2023-05-15T17:16:05.652Z,4.55
2023-05-15T17:18:32.896Z,3.60
2023-05-15T17:21:00.031Z,3.92
2023-05-15T17:23:27.119Z,3.92
2023-05-15T17:25:54.245Z,4.45
2023-05-15T17:28:21.382Z,4.30
2023-05-15T17:30:48.711Z,4.35
2023-05-15T17:33:15.915Z,4.32
2023-05-15T17:35:43.212Z,4.20
2023-05-15T17:38:10.357Z,4.55
2023-05-15T17:40:37.501Z,4.88
2023-05-15T17:43:04.624Z,5.15
2023-05-15T17:45:31.778Z,4.95
2023-05-15T17:48:03.687Z,5.15
2023-05-15T17:50:30.981Z,5.32
2023-05-15T17:52:58.244Z,4.53
2023-05-15T17:55:25.695Z,4.78
2023-05-15T17:57:53.082Z,4.90
2023-05-15T18:00:20.422Z,4.82
2023-05-15T18:02:47.684Z,5.15
2023-05-15T18:05:14.885Z,5.03
2023-05-15T18:07:42.418Z,5.32
2023-05-15T18:10:10.268Z,4.85
2023-05-15T18:12:37.486Z,5.25
2023-05-15T18:15:04.931Z,5.07
2023-05-15T18:17:32.082Z,5.10
2023-05-15T18:19:59.318Z,5.05
2023-05-15T18:22:26.559Z,5.05
2023-05-15T18:24:53.747Z,5.40
2023-05-15T18:27:20.953Z,5.22
2023-05-15T18:29:48.197Z,5.30
2023-05-15T18:32:15.375Z,4.47
2023-05-15T18:34:42.512Z,5.22
2023-05-15T18:37:09.652Z,4.88
2023-05-15T18:39:38.224Z,5.03
2023-05-15T18:42:06.216Z,5.38
2023-05-15T18:44:34.845Z,5.07
2023-05-15T18:47:02.693Z,5.32
2023-05-15T18:49:29.965Z,4.70
2023-05-15T18:51:57.934Z,5.38
2023-05-15T18:54:25.126Z,5.15
2023-05-15T18:56:52.262Z,5.03
2023-05-15T18:59:19.980Z,4.63
2023-05-15T19:01:49.021Z,4.80
2023-05-15T19:04:16.254Z,4.75
2023-05-15T19:06:44.064Z,4.97
2023-05-15T19:09:11.283Z,5.10
2023-05-15T19:11:38.524Z,4.95
2023-05-15T19:14:05.675Z,4.95
2023-05-15T19:16:33.048Z,5.78
2023-05-15T19:19:00.577Z,5.13
2023-05-15T19:21:27.921Z,4.47
2023-05-15T19:23:55.099Z,4.97
2023-05-15T19:26:22.325Z,5.00
2023-05-15T19:28:49.503Z,5.22
2023-05-15T19:31:30.258Z,5.22
2023-05-15T19:33:59.055Z,5.80
2023-05-15T19:36:26.225Z,5.63
2023-05-15T19:38:53.544Z,5.95
2023-05-15T19:41:21.698Z,6.47
2023-05-15T19:43:50.739Z,7.18
2023-05-15T19:46:18.467Z,6.10
2023-05-15T19:48:45.868Z,5.43
2023-05-15T19:51:13.278Z,5.95
2023-05-15T19:53:41.219Z,10.10
2023-05-15T19:56:08.532Z,9.50
2023-05-15T19:58:35.809Z,7.82
2023-05-15T20:01:03.096Z,6.38
2023-05-15T20:03:33.286Z,5.90
2023-05-15T20:06:01.410Z,5.88
2023-05-15T20:08:29.102Z,6.25
2023-05-15T20:10:56.774Z,6.10
2023-05-15T20:13:24.099Z,5.80
2023-05-15T20:15:57.947Z,5.85
2023-05-15T20:18:32.173Z,6.03
2023-05-15T20:21:01.013Z,5.60
2023-05-15T20:23:28.307Z,6.43
2023-05-15T20:25:55.510Z,5.72
2023-05-15T20:28:25.282Z,6.15
2023-05-15T20:30:52.935Z,5.57
2023-05-15T20:33:20.165Z,6.22
2023-05-15T20:35:47.483Z,5.70
2023-05-15T20:38:14.626Z,5.47
2023-05-15T20:40:41.838Z,6.10
2023-05-15T20:43:09.008Z,6.25
2023-05-15T20:45:36.648Z,6.25
2023-05-15T20:48:05.218Z,5.68
2023-05-15T20:50:32.399Z,5.45
2023-05-15T20:52:59.492Z,6.03
2023-05-15T20:55:26.912Z,6.03
2023-05-15T20:57:54.310Z,5.53
2023-05-15T21:00:21.773Z,5.85
2023-05-15T21:02:48.932Z,5.68
2023-05-15T21:05:16.286Z,5.78
2023-05-15T21:07:43.542Z,6.75
2023-05-15T21:10:10.764Z,6.47
2023-05-15T21:12:38.009Z,6.25
2023-05-15T21:15:06.132Z,6.22
2023-05-15T21:17:33.338Z,6.03
2023-05-15T21:20:01.943Z,5.80
2023-05-15T21:22:29.181Z,5.53
2023-05-15T21:24:56.305Z,5.55
2023-05-15T21:27:23.441Z,5.93
2023-05-15T21:29:51.016Z,5.60
2023-05-15T21:32:18.187Z,5.65
2023-05-15T21:34:45.402Z,5.72
2023-05-15T21:37:12.501Z,5.93
2023-05-15T21:39:39.674Z,5.82
2023-05-15T21:42:06.896Z,6.20
2023-05-15T21:44:35.429Z,5.68
2023-05-15T21:47:02.663Z,5.53
2023-05-15T21:49:29.772Z,5.85
2023-05-15T21:51:56.990Z,5.28
2023-05-15T21:54:24.222Z,6.28
2023-05-15T21:56:51.845Z,6.05
2023-05-15T21:59:19.208Z,6.47
2023-05-15T22:01:46.451Z,5.95
2023-05-15T22:04:13.691Z,6.80
2023-05-15T22:06:41.082Z,6.57
2023-05-15T22:09:08.392Z,6.32
2023-05-15T22:11:35.538Z,5.88
2023-05-15T22:14:02.985Z,6.78
2023-05-15T22:16:30.369Z,6.05
2023-05-15T22:18:57.832Z,6.63
2023-05-15T22:21:25.169Z,6.60
2023-05-15T22:23:52.344Z,6.53
2023-05-15T22:26:20.777Z,6.50
2023-05-15T22:28:48.848Z,6.97
2023-05-15T22:31:16.269Z,7.35
2023-05-15T22:33:43.436Z,7.82
2023-05-15T22:36:10.653Z,7.10
2023-05-15T22:38:37.815Z,7.50
2023-05-15T22:41:05.580Z,7.22
2023-05-15T22:43:32.843Z,7.72
2023-05-15T22:46:00.031Z,8.02
2023-05-15T22:48:27.288Z,7.97
2023-05-15T22:50:54.558Z,9.02
2023-05-15T22:53:21.757Z,8.32
2023-05-15T22:55:49.129Z,8.18
2023-05-15T22:58:16.435Z,8.52
2023-05-15T23:00:43.577Z,7.78
2023-05-15T23:03:10.887Z,7.88
2023-05-15T23:05:38.120Z,7.63
2023-05-15T23:08:05.410Z,7.72
2023-05-15T23:10:32.584Z,7.57
2023-05-15T23:12:59.711Z,6.57
2023-05-15T23:15:26.914Z,6.85
2023-05-15T23:17:54.108Z,7.38
2023-05-15T23:20:21.443Z,7.63
2023-05-15T23:22:48.700Z,7.40
2023-05-15T23:25:16.262Z,7.80
2023-05-15T23:27:43.565Z,8.40
2023-05-15T23:30:11.076Z,8.82
2023-05-15T23:32:38.315Z,8.90
2023-05-15T23:35:05.822Z,8.90
2023-05-15T23:37:32.946Z,8.50
2023-05-15T23:40:00.179Z,9.02
2023-05-15T23:42:27.330Z,9.50
2023-05-15T23:44:54.479Z,9.27
2023-05-15T23:47:21.702Z,8.93
2023-05-15T23:49:48.903Z,9.57
2023-05-15T23:52:16.030Z,9.27
2023-05-15T23:54:43.673Z,10.35
2023-05-15T23:57:10.891Z,8.88
2023-05-15T23:59:38.066Z,9.15
